Terminal Aerodrome Forecast
Issued by NWS

Home | Current Version | Previous Version | Text Only | Print | Product List | Glossary On
Versions: 1 2 3 4 5 6 7 8 9 10 11 12 13 14
000
FTUS45 KTFX 281145 CCA
TAFHVR
TAF COR
KHVR 281145Z 2812/2912 VRB05KT P6SM BKN150
     FM281800 34014G20KT P6SM VCTS SCT040CB BKN080 PROB30 2821/2824
      VRB25G35KT 4SM TSRA BKN030CB
     FM290000 03011G17KT P6SM VCSH SCT030 OVC050
     FM290700 07008KT P6SM SCT040 OVC080=

USA.gov is the U.S. government's official web portal to all federal, state and local government web resources and services.